sensor_id;sensor_type;location;lat;lon;timestamp;temperature;humidity
20831;DHT22;10576;53.556;9.868;2023-02-01T00:02:17;5.30;99.90
20831;DHT22;10576;53.556;9.868;2023-02-01T00:07:09;5.30;99.90
20831;DHT22;10576;53.556;9.868;2023-02-01T00:09:34;5.20;99.90
20831;DHT22;10576;53.556;9.868;2023-02-01T00:12:00;5.30;99.90
20831;DHT22;10576;53.556;9.868;2023-02-01T00:14:28;5.10;99.90
20831;DHT22;10576;53.556;9.868;2023-02-01T00:16:54;5.20;99.90
20831;DHT22;10576;53.556;9.868;2023-02-01T00:24:12;5.20;99.90
20831;DHT22;10576;53.556;9.868;2023-02-01T00:26:42;5.30;99.90
20831;DHT22;10576;53.556;9.868;2023-02-01T00:29:13;5.30;99.90
20831;DHT22;10576;53.556;9.868;2023-02-01T00:34:08;5.40;99.90
20831;DHT22;10576;53.556;9.868;2023-02-01T00:39:00;5.30;99.90
20831;DHT22;10576;53.556;9.868;2023-02-01T00:46:19;5.50;99.90
20831;DHT22;10576;53.556;9.868;2023-02-01T00:48:45;5.40;99.90
20831;DHT22;10576;53.556;9.868;2023-02-01T00:51:13;5.50;99.90
20831;DHT22;10576;53.556;9.868;2023-02-01T00:56:06;5.50;99.90
20831;DHT22;10576;53.556;9.868;2023-02-01T00:58:33;5.60;99.90
20831;DHT22;10576;53.556;9.868;2023-02-01T01:03:34;5.40;99.90
20831;DHT22;10576;53.556;9.868;2023-02-01T01:06:04;5.50;99.90
20831;DHT22;10576;53.556;9.868;2023-02-01T01:08:30;5.50;99.90
20831;DHT22;10576;53.556;9.868;2023-02-01T01:13:22;5.50;99.90
20831;DHT22;10576;53.556;9.868;2023-02-01T01:18:14;5.50;99.90
20831;DHT22;10576;53.556;9.868;2023-02-01T01:20:40;5.50;99.90
20831;DHT22;10576;53.556;9.868;2023-02-01T01:23:08;5.50;99.90
20831;DHT22;10576;53.556;9.868;2023-02-01T01:25:38;5.50;99.90
20831;DHT22;10576;53.556;9.868;2023-02-01T01:28:04;5.60;99.90
20831;DHT22;10576;53.556;9.868;2023-02-01T01:30:30;5.50;99.90
20831;DHT22;10576;53.556;9.868;2023-02-01T01:32:56;5.60;99.90
20831;DHT22;10576;53.556;9.868;2023-02-01T01:37:47;5.70;99.90
20831;DHT22;10576;53.556;9.868;2023-02-01T01:42:41;5.80;99.90
20831;DHT22;10576;53.556;9.868;2023-02-01T01:48:11;5.60;99.90
20831;DHT22;10576;53.556;9.868;2023-02-01T01:50:52;5.60;99.90
20831;DHT22;10576;53.556;9.868;2023-02-01T01:55:54;5.70;99.90
20831;DHT22;10576;53.556;9.868;2023-02-01T02:05:49;5.60;99.90
20831;DHT22;10576;53.556;9.868;2023-02-01T02:08:17;5.60;99.90
20831;DHT22;10576;53.556;9.868;2023-02-01T02:10:43;5.60;99.90
20831;DHT22;10576;53.556;9.868;2023-02-01T02:13:36;5.60;99.90
20831;DHT22;10576;53.556;9.868;2023-02-01T02:43:37;5.50;99.90
20831;DHT22;10576;53.556;9.868;2023-02-01T02:52:04;5.40;99.90
20831;DHT22;10576;53.556;9.868;2023-02-01T02:54:50;5.40;99.90
20831;DHT22;10576;53.556;9.868;2023-02-01T03:00:14;5.30;99.90
20831;DHT22;10576;53.556;9.868;2023-02-01T03:03:00;5.40;99.90
20831;DHT22;10576;53.556;9.868;2023-02-01T03:05:46;5.30;99.90
20831;DHT22;10576;53.556;9.868;2023-02-01T03:16:21;5.40;99.90
20831;DHT22;10576;53.556;9.868;2023-02-01T03:19:15;5.20;99.90
20831;DHT22;10576;53.556;9.868;2023-02-01T03:22:03;5.40;99.90
20831;DHT22;10576;53.556;9.868;2023-02-01T03:32:37;5.10;99.90
20831;DHT22;10576;53.556;9.868;2023-02-01T03:38:09;4.90;99.90
20831;DHT22;10576;53.556;9.868;2023-02-01T03:40:39;4.80;99.90
20831;DHT22;10576;53.556;9.868;2023-02-01T03:43:11;5.00;99.90
20831;DHT22;10576;53.556;9.868;2023-02-01T03:45:43;4.90;99.90
20831;DHT22;10576;53.556;9.868;2023-02-01T03:50:40;4.70;99.90
20831;DHT22;10576;53.556;9.868;2023-02-01T03:53:12;4.80;99.90
20831;DHT22;10576;53.556;9.868;2023-02-01T03:55:41;4.70;99.90
20831;DHT22;10576;53.556;9.868;2023-02-01T04:05:37;5.00;99.90
20831;DHT22;10576;53.556;9.868;2023-02-01T04:10:30;5.10;99.90
20831;DHT22;10576;53.556;9.868;2023-02-01T04:12:56;5.10;99.90
20831;DHT22;10576;53.556;9.868;2023-02-01T04:15:22;4.90;99.90
20831;DHT22;10576;53.556;9.868;2023-02-01T04:17:47;4.80;99.90
20831;DHT22;10576;53.556;9.868;2023-02-01T04:20:13;5.10;99.90
20831;DHT22;10576;53.556;9.868;2023-02-01T04:29:57;5.00;99.90
20831;DHT22;10576;53.556;9.868;2023-02-01T04:32:22;4.80;99.90
20831;DHT22;10576;53.556;9.868;2023-02-01T04:37:14;5.10;99.90
20831;DHT22;10576;53.556;9.868;2023-02-01T04:42:06;4.90;99.90
20831;DHT22;10576;53.556;9.868;2023-02-01T04:51:52;4.80;99.90
20831;DHT22;10576;53.556;9.868;2023-02-01T04:56:43;4.50;99.90
20831;DHT22;10576;53.556;9.868;2023-02-01T04:59:11;4.60;99.90
20831;DHT22;10576;53.556;9.868;2023-02-01T05:01:37;4.70;99.90
20831;DHT22;10576;53.556;9.868;2023-02-01T05:06:28;4.30;99.90
20831;DHT22;10576;53.556;9.868;2023-02-01T05:11:20;4.10;99.90
20831;DHT22;10576;53.556;9.868;2023-02-01T05:16:31;3.90;99.90
20831;DHT22;10576;53.556;9.868;2023-02-01T05:26:33;3.80;99.90
20831;DHT22;10576;53.556;9.868;2023-02-01T05:33:51;3.70;99.90
20831;DHT22;10576;53.556;9.868;2023-02-01T05:38:43;3.70;99.90
20831;DHT22;10576;53.556;9.868;2023-02-01T05:43:35;3.50;99.90
20831;DHT22;10576;53.556;9.868;2023-02-01T05:48:27;3.30;99.90
20831;DHT22;10576;53.556;9.868;2023-02-01T05:53:18;3.40;99.90
20831;DHT22;10576;53.556;9.868;2023-02-01T05:58:10;3.30;99.90
20831;DHT22;10576;53.556;9.868;2023-02-01T06:03:03;3.30;99.90
20831;DHT22;10576;53.556;9.868;2023-02-01T06:07:55;3.40;99.90
20831;DHT22;10576;53.556;9.868;2023-02-01T06:12:47;3.50;99.90
20831;DHT22;10576;53.556;9.868;2023-02-01T06:15:13;3.60;99.90
20831;DHT22;10576;53.556;9.868;2023-02-01T06:17:44;3.50;99.90
20831;DHT22;10576;53.556;9.868;2023-02-01T06:20:12;3.60;99.90
20831;DHT22;10576;53.556;9.868;2023-02-01T06:22:39;3.60;99.90
20831;DHT22;10576;53.556;9.868;2023-02-01T06:25:06;3.70;99.90
20831;DHT22;10576;53.556;9.868;2023-02-01T06:27:32;3.60;99.90
20831;DHT22;10576;53.556;9.868;2023-02-01T06:39:48;3.90;99.90
20831;DHT22;10576;53.556;9.868;2023-02-01T06:49:33;4.00;99.90
20831;DHT22;10576;53.556;9.868;2023-02-01T06:54:28;3.90;99.90
20831;DHT22;10576;53.556;9.868;2023-02-01T06:59:20;4.00;99.90
20831;DHT22;10576;53.556;9.868;2023-02-01T07:04:12;4.10;99.90
20831;DHT22;10576;53.556;9.868;2023-02-01T07:09:07;4.10;99.90
20831;DHT22;10576;53.556;9.868;2023-02-01T07:13:59;4.30;99.90
20831;DHT22;10576;53.556;9.868;2023-02-01T07:18:52;4.30;99.90
20831;DHT22;10576;53.556;9.868;2023-02-01T07:28:38;4.50;99.90
20831;DHT22;10576;53.556;9.868;2023-02-01T07:31:09;4.60;99.90
20831;DHT22;10576;53.556;9.868;2023-02-01T07:36:04;4.50;99.90
20831;DHT22;10576;53.556;9.868;2023-02-01T07:38:30;4.60;99.90
20831;DHT22;10576;53.556;9.868;2023-02-01T07:41:03;4.60;99.90
20831;DHT22;10576;53.556;9.868;2023-02-01T07:43:30;4.50;99.90
20831;DHT22;10576;53.556;9.868;2023-02-01T07:45:56;4.80;99.90
20831;DHT22;10576;53.556;9.868;2023-02-01T07:48:23;4.80;99.90
20831;DHT22;10576;53.556;9.868;2023-02-01T07:51:00;4.80;99.90
20831;DHT22;10576;53.556;9.868;2023-02-01T07:53:26;4.90;99.90
20831;DHT22;10576;53.556;9.868;2023-02-01T07:55:51;4.90;99.90
20831;DHT22;10576;53.556;9.868;2023-02-01T07:58:17;4.80;99.90
20831;DHT22;10576;53.556;9.868;2023-02-01T08:00:43;4.90;99.90
20831;DHT22;10576;53.556;9.868;2023-02-01T08:03:27;4.90;99.90
20831;DHT22;10576;53.556;9.868;2023-02-01T08:05:55;5.20;99.90
20831;DHT22;10576;53.556;9.868;2023-02-01T08:08:22;5.00;99.90
20831;DHT22;10576;53.556;9.868;2023-02-01T08:10:47;4.90;99.90
20831;DHT22;10576;53.556;9.868;2023-02-01T08:13:13;5.00;99.90
20831;DHT22;10576;53.556;9.868;2023-02-01T08:15:39;5.00;99.90
20831;DHT22;10576;53.556;9.868;2023-02-01T08:18:04;5.10;99.90
20831;DHT22;10576;53.556;9.868;2023-02-01T08:20:30;5.10;99.90
20831;DHT22;10576;53.556;9.868;2023-02-01T08:22:56;5.00;99.90
20831;DHT22;10576;53.556;9.868;2023-02-01T08:25:23;5.10;99.90
20831;DHT22;10576;53.556;9.868;2023-02-01T08:27:49;5.00;99.90
20831;DHT22;10576;53.556;9.868;2023-02-01T08:30:15;5.30;99.90
20831;DHT22;10576;53.556;9.868;2023-02-01T08:32:41;5.70;99.90
20831;DHT22;10576;53.556;9.868;2023-02-01T08:35:07;5.60;99.90
20831;DHT22;10576;53.556;9.868;2023-02-01T08:37:33;5.60;99.90
20831;DHT22;10576;53.556;9.868;2023-02-01T08:39:59;5.50;99.90
20831;DHT22;10576;53.556;9.868;2023-02-01T08:42:24;5.50;99.90
20831;DHT22;10576;53.556;9.868;2023-02-01T08:45:09;5.60;99.90
20831;DHT22;10576;53.556;9.868;2023-02-01T08:47:35;5.50;99.90
20831;DHT22;10576;53.556;9.868;2023-02-01T08:50:01;5.80;99.90
20831;DHT22;10576;53.556;9.868;2023-02-01T08:52:27;5.60;99.90
20831;DHT22;10576;53.556;9.868;2023-02-01T08:54:52;5.70;99.90
20831;DHT22;10576;53.556;9.868;2023-02-01T08:57:18;6.40;99.90
20831;DHT22;10576;53.556;9.868;2023-02-01T08:59:43;5.50;99.90
20831;DHT22;10576;53.556;9.868;2023-02-01T09:02:16;5.80;99.90
20831;DHT22;10576;53.556;9.868;2023-02-01T09:04:42;5.90;99.90
20831;DHT22;10576;53.556;9.868;2023-02-01T09:07:09;5.70;99.90
20831;DHT22;10576;53.556;9.868;2023-02-01T09:09:35;5.90;99.90
20831;DHT22;10576;53.556;9.868;2023-02-01T09:12:01;6.00;99.90
20831;DHT22;10576;53.556;9.868;2023-02-01T09:14:27;5.90;99.90
20831;DHT22;10576;53.556;9.868;2023-02-01T09:16:53;5.90;99.90
20831;DHT22;10576;53.556;9.868;2023-02-01T09:19:18;5.90;99.90
20831;DHT22;10576;53.556;9.868;2023-02-01T09:21:44;6.10;99.90
20831;DHT22;10576;53.556;9.868;2023-02-01T09:24:10;5.90;99.90
20831;DHT22;10576;53.556;9.868;2023-02-01T09:26:37;5.90;99.90
20831;DHT22;10576;53.556;9.868;2023-02-01T09:29:03;5.80;99.90
20831;DHT22;10576;53.556;9.868;2023-02-01T09:31:30;5.90;99.90
20831;DHT22;10576;53.556;9.868;2023-02-01T09:33:56;5.80;99.90
20831;DHT22;10576;53.556;9.868;2023-02-01T09:36:22;6.10;99.90
20831;DHT22;10576;53.556;9.868;2023-02-01T09:38:48;5.80;99.90
20831;DHT22;10576;53.556;9.868;2023-02-01T09:46:32;6.20;99.90
20831;DHT22;10576;53.556;9.868;2023-02-01T09:49:04;6.20;99.90
20831;DHT22;10576;53.556;9.868;2023-02-01T09:51:43;6.30;99.90
20831;DHT22;10576;53.556;9.868;2023-02-01T09:54:17;6.20;99.90
20831;DHT22;10576;53.556;9.868;2023-02-01T09:56:51;6.20;99.90
20831;DHT22;10576;53.556;9.868;2023-02-01T09:59:29;6.40;99.90
20831;DHT22;10576;53.556;9.868;2023-02-01T10:01:58;6.40;99.90
20831;DHT22;10576;53.556;9.868;2023-02-01T10:04:25;6.40;99.90
20831;DHT22;10576;53.556;9.868;2023-02-01T10:21:01;6.50;99.90
20831;DHT22;10576;53.556;9.868;2023-02-01T10:26:23;6.50;99.90
20831;DHT22;10576;53.556;9.868;2023-02-01T10:28:52;6.30;99.90
20831;DHT22;10576;53.556;9.868;2023-02-01T10:31:18;6.20;99.90
20831;DHT22;10576;53.556;9.868;2023-02-01T10:33:49;6.30;99.90
20831;DHT22;10576;53.556;9.868;2023-02-01T10:36:32;6.10;99.90
20831;DHT22;10576;53.556;9.868;2023-02-01T10:39:02;6.20;99.90
20831;DHT22;10576;53.556;9.868;2023-02-01T10:41:36;6.20;99.90
20831;DHT22;10576;53.556;9.868;2023-02-01T10:44:10;6.10;99.90
20831;DHT22;10576;53.556;9.868;2023-02-01T10:46:37;6.00;99.90
20831;DHT22;10576;53.556;9.868;2023-02-01T10:49:04;6.00;99.90
20831;DHT22;10576;53.556;9.868;2023-02-01T10:54:39;6.20;99.90
20831;DHT22;10576;53.556;9.868;2023-02-01T10:57:19;6.00;99.90
20831;DHT22;10576;53.556;9.868;2023-02-01T10:59:46;5.90;99.90
20831;DHT22;10576;53.556;9.868;2023-02-01T11:02:29;6.00;99.90
20831;DHT22;10576;53.556;9.868;2023-02-01T11:05:08;6.00;99.90
20831;DHT22;10576;53.556;9.868;2023-02-01T11:07:38;5.90;99.90
20831;DHT22;10576;53.556;9.868;2023-02-01T11:10:04;6.10;99.90
20831;DHT22;10576;53.556;9.868;2023-02-01T11:12:35;6.20;99.90
20831;DHT22;10576;53.556;9.868;2023-02-01T11:15:18;6.20;99.90
20831;DHT22;10576;53.556;9.868;2023-02-01T11:17:46;6.20;99.90
20831;DHT22;10576;53.556;9.868;2023-02-01T11:20:21;6.10;99.90
20831;DHT22;10576;53.556;9.868;2023-02-01T11:22:55;6.40;99.90
20831;DHT22;10576;53.556;9.868;2023-02-01T11:25:23;6.10;99.90
20831;DHT22;10576;53.556;9.868;2023-02-01T11:27:51;6.30;99.90
20831;DHT22;10576;53.556;9.868;2023-02-01T11:30:22;6.30;99.90
20831;DHT22;10576;53.556;9.868;2023-02-01T11:32:50;6.20;99.90
20831;DHT22;10576;53.556;9.868;2023-02-01T11:35:19;6.30;99.90
20831;DHT22;10576;53.556;9.868;2023-02-01T11:37:54;6.40;99.90
20831;DHT22;10576;53.556;9.868;2023-02-01T11:40:25;6.30;99.90
20831;DHT22;10576;53.556;9.868;2023-02-01T11:43:28;6.40;99.90
20831;DHT22;10576;53.556;9.868;2023-02-01T11:46:02;6.40;99.90
20831;DHT22;10576;53.556;9.868;2023-02-01T11:48:30;6.20;99.90
20831;DHT22;10576;53.556;9.868;2023-02-01T12:02:53;5.90;99.90
20831;DHT22;10576;53.556;9.868;2023-02-01T12:16:35;5.50;99.90
20831;DHT22;10576;53.556;9.868;2023-02-01T12:19:36;5.50;99.90
20831;DHT22;10576;53.556;9.868;2023-02-01T12:22:55;5.60;99.90
20831;DHT22;10576;53.556;9.868;2023-02-01T12:43:49;4.90;99.90
20831;DHT22;10576;53.556;9.868;2023-02-01T12:49:03;4.80;99.90
20831;DHT22;10576;53.556;9.868;2023-02-01T12:51:41;4.80;99.90
20831;DHT22;10576;53.556;9.868;2023-02-01T12:56:46;4.80;99.90
20831;DHT22;10576;53.556;9.868;2023-02-01T12:59:44;4.80;99.90
20831;DHT22;10576;53.556;9.868;2023-02-01T13:07:18;5.00;99.90
20831;DHT22;10576;53.556;9.868;2023-02-01T13:12:28;4.70;99.90
20831;DHT22;10576;53.556;9.868;2023-02-01T13:15:15;4.70;99.90
20831;DHT22;10576;53.556;9.868;2023-02-01T13:17:42;5.00;99.90
20831;DHT22;10576;53.556;9.868;2023-02-01T13:23:03;4.80;99.90
20831;DHT22;10576;53.556;9.868;2023-02-01T13:28:07;4.90;99.90
20831;DHT22;10576;53.556;9.868;2023-02-01T13:51:42;4.90;99.90
20831;DHT22;10576;53.556;9.868;2023-02-01T14:13:28;5.60;99.90
20831;DHT22;10576;53.556;9.868;2023-02-01T14:18:49;5.80;99.90
20831;DHT22;10576;53.556;9.868;2023-02-01T14:26:48;5.80;99.90
20831;DHT22;10576;53.556;9.868;2023-02-01T14:41:54;5.10;99.90
20831;DHT22;10576;53.556;9.868;2023-02-01T14:49:49;5.10;99.90
20831;DHT22;10576;53.556;9.868;2023-02-01T14:52:19;4.90;99.90
20831;DHT22;10576;53.556;9.868;2023-02-01T15:02:21;4.90;99.90
20831;DHT22;10576;53.556;9.868;2023-02-01T15:19:58;4.90;99.90
20831;DHT22;10576;53.556;9.868;2023-02-01T15:24:55;4.90;99.90
20831;DHT22;10576;53.556;9.868;2023-02-01T15:27:21;4.60;99.90
20831;DHT22;10576;53.556;9.868;2023-02-01T15:29:47;4.90;99.90
20831;DHT22;10576;53.556;9.868;2023-02-01T15:32:36;4.70;99.90
20831;DHT22;10576;53.556;9.868;2023-02-01T15:42:54;4.60;99.90
20831;DHT22;10576;53.556;9.868;2023-02-01T15:50:18;4.60;99.90
20831;DHT22;10576;53.556;9.868;2023-02-01T15:55:23;4.40;99.90
20831;DHT22;10576;53.556;9.868;2023-02-01T15:57:50;4.50;99.90
20831;DHT22;10576;53.556;9.868;2023-02-01T16:00:30;4.50;99.90
20831;DHT22;10576;53.556;9.868;2023-02-01T16:05:36;4.50;99.90
20831;DHT22;10576;53.556;9.868;2023-02-01T16:08:25;4.70;99.90
20831;DHT22;10576;53.556;9.868;2023-02-01T16:20:40;4.70;99.90
20831;DHT22;10576;53.556;9.868;2023-02-01T16:30:25;4.90;99.90
20831;DHT22;10576;53.556;9.868;2023-02-01T16:42:43;4.80;99.90
20831;DHT22;10576;53.556;9.868;2023-02-01T16:52:30;4.90;99.90
20831;DHT22;10576;53.556;9.868;2023-02-01T17:02:18;5.20;99.90
20831;DHT22;10576;53.556;9.868;2023-02-01T17:04:47;5.10;99.90
20831;DHT22;10576;53.556;9.868;2023-02-01T17:07:17;5.20;99.90
20831;DHT22;10576;53.556;9.868;2023-02-01T17:09:44;5.30;99.90
20831;DHT22;10576;53.556;9.868;2023-02-01T17:14:56;5.30;99.90
20831;DHT22;10576;53.556;9.868;2023-02-01T17:19:52;5.20;99.90
20831;DHT22;10576;53.556;9.868;2023-02-01T17:27:14;5.40;99.90
20831;DHT22;10576;53.556;9.868;2023-02-01T17:42:19;5.20;99.90
20831;DHT22;10576;53.556;9.868;2023-02-01T17:52:04;5.20;99.90
20831;DHT22;10576;53.556;9.868;2023-02-01T17:54:29;5.00;99.90
20831;DHT22;10576;53.556;9.868;2023-02-01T17:56:55;5.10;99.90
20831;DHT22;10576;53.556;9.868;2023-02-01T17:59:25;5.30;99.90
20831;DHT22;10576;53.556;9.868;2023-02-01T18:01:50;5.30;99.90
20831;DHT22;10576;53.556;9.868;2023-02-01T18:04:18;5.30;99.90
20831;DHT22;10576;53.556;9.868;2023-02-01T18:09:10;5.10;99.90
20831;DHT22;10576;53.556;9.868;2023-02-01T18:31:29;5.10;99.90
20831;DHT22;10576;53.556;9.868;2023-02-01T18:55:58;5.10;99.90
20831;DHT22;10576;53.556;9.868;2023-02-01T19:05:43;5.10;99.90
20831;DHT22;10576;53.556;9.868;2023-02-01T19:13:03;5.20;99.90
20831;DHT22;10576;53.556;9.868;2023-02-01T19:15:29;5.30;99.90
20831;DHT22;10576;53.556;9.868;2023-02-01T19:25:19;5.30;99.90
20831;DHT22;10576;53.556;9.868;2023-02-01T19:32:39;5.50;99.90
20831;DHT22;10576;53.556;9.868;2023-02-01T19:35:05;5.50;99.90
20831;DHT22;10576;53.556;9.868;2023-02-01T19:39:57;5.40;99.90
20831;DHT22;10576;53.556;9.868;2023-02-01T19:42:26;5.40;99.90
20831;DHT22;10576;53.556;9.868;2023-02-01T19:44:52;5.10;99.90
20831;DHT22;10576;53.556;9.868;2023-02-01T19:47:18;5.00;99.90
20831;DHT22;10576;53.556;9.868;2023-02-01T19:54:37;4.70;99.90
20831;DHT22;10576;53.556;9.868;2023-02-01T19:57:03;5.50;99.90
20831;DHT22;10576;53.556;9.868;2023-02-01T19:59:28;4.50;99.90
20831;DHT22;10576;53.556;9.868;2023-02-01T20:01:54;4.40;99.90
20831;DHT22;10576;53.556;9.868;2023-02-01T20:04:20;4.50;99.90
20831;DHT22;10576;53.556;9.868;2023-02-01T20:06:47;4.40;99.90
20831;DHT22;10576;53.556;9.868;2023-02-01T20:09:25;4.50;99.90
20831;DHT22;10576;53.556;9.868;2023-02-01T20:11:52;6.90;99.90
20831;DHT22;10576;53.556;9.868;2023-02-01T20:14:20;4.50;99.90
20831;DHT22;10576;53.556;9.868;2023-02-01T20:16:45;4.60;99.90
20831;DHT22;10576;53.556;9.868;2023-02-01T20:19:11;4.70;99.90
20831;DHT22;10576;53.556;9.868;2023-02-01T20:21:38;4.70;99.90
20831;DHT22;10576;53.556;9.868;2023-02-01T20:24:04;4.90;99.90
20831;DHT22;10576;53.556;9.868;2023-02-01T20:26:30;4.90;99.90
20831;DHT22;10576;53.556;9.868;2023-02-01T20:28:57;5.10;99.90
20831;DHT22;10576;53.556;9.868;2023-02-01T20:31:24;5.20;99.90
20831;DHT22;10576;53.556;9.868;2023-02-01T20:38:45;5.30;99.90
20831;DHT22;10576;53.556;9.868;2023-02-01T20:41:10;5.40;99.90
20831;DHT22;10576;53.556;9.868;2023-02-01T20:43:36;5.30;99.90
20831;DHT22;10576;53.556;9.868;2023-02-01T20:46:02;5.10;99.90
20831;DHT22;10576;53.556;9.868;2023-02-01T20:48:28;5.10;99.90
20831;DHT22;10576;53.556;9.868;2023-02-01T20:50:55;5.20;99.90
20831;DHT22;10576;53.556;9.868;2023-02-01T20:53:22;4.90;99.90
20831;DHT22;10576;53.556;9.868;2023-02-01T20:55:52;4.90;99.90
20831;DHT22;10576;53.556;9.868;2023-02-01T20:58:18;4.90;99.90
20831;DHT22;10576;53.556;9.868;2023-02-01T21:03:11;5.10;99.90
20831;DHT22;10576;53.556;9.868;2023-02-01T21:05:37;4.90;99.90
20831;DHT22;10576;53.556;9.868;2023-02-01T21:08:10;5.00;99.90
20831;DHT22;10576;53.556;9.868;2023-02-01T21:10:37;5.10;99.90
20831;DHT22;10576;53.556;9.868;2023-02-01T21:13:04;5.20;99.90
20831;DHT22;10576;53.556;9.868;2023-02-01T21:15:30;5.20;99.90
20831;DHT22;10576;53.556;9.868;2023-02-01T21:17:59;5.40;99.90
20831;DHT22;10576;53.556;9.868;2023-02-01T21:22:51;5.20;99.90
20831;DHT22;10576;53.556;9.868;2023-02-01T21:27:42;5.40;99.90
20831;DHT22;10576;53.556;9.868;2023-02-01T21:30:08;5.30;99.90
20831;DHT22;10576;53.556;9.868;2023-02-01T21:32:34;5.50;99.90
20831;DHT22;10576;53.556;9.868;2023-02-01T21:35:00;5.40;99.90
20831;DHT22;10576;53.556;9.868;2023-02-01T21:37:25;5.50;99.90
20831;DHT22;10576;53.556;9.868;2023-02-01T21:44:46;5.50;99.90
20831;DHT22;10576;53.556;9.868;2023-02-01T21:47:17;5.40;99.90
20831;DHT22;10576;53.556;9.868;2023-02-01T21:49:47;5.40;99.90
20831;DHT22;10576;53.556;9.868;2023-02-01T21:52:14;5.50;99.90
20831;DHT22;10576;53.556;9.868;2023-02-01T21:54:40;5.60;99.90
20831;DHT22;10576;53.556;9.868;2023-02-01T21:57:06;5.50;99.90
20831;DHT22;10576;53.556;9.868;2023-02-01T21:59:36;5.60;99.90
20831;DHT22;10576;53.556;9.868;2023-02-01T22:02:02;5.70;99.90
20831;DHT22;10576;53.556;9.868;2023-02-01T22:04:29;5.50;99.90
20831;DHT22;10576;53.556;9.868;2023-02-01T22:06:54;5.70;99.90
20831;DHT22;10576;53.556;9.868;2023-02-01T22:09:22;5.60;99.90
20831;DHT22;10576;53.556;9.868;2023-02-01T22:11:49;5.60;99.90
20831;DHT22;10576;53.556;9.868;2023-02-01T22:14:15;5.60;99.90
20831;DHT22;10576;53.556;9.868;2023-02-01T22:16:40;5.50;99.90
20831;DHT22;10576;53.556;9.868;2023-02-01T22:19:07;5.70;99.90
20831;DHT22;10576;53.556;9.868;2023-02-01T22:21:34;5.50;99.90
20831;DHT22;10576;53.556;9.868;2023-02-01T22:24:00;5.60;99.90
20831;DHT22;10576;53.556;9.868;2023-02-01T22:26:26;5.50;99.90
20831;DHT22;10576;53.556;9.868;2023-02-01T22:28:52;5.60;99.90
20831;DHT22;10576;53.556;9.868;2023-02-01T22:31:19;5.50;99.90
20831;DHT22;10576;53.556;9.868;2023-02-01T22:33:46;5.60;99.90
20831;DHT22;10576;53.556;9.868;2023-02-01T22:36:13;5.60;99.90
20831;DHT22;10576;53.556;9.868;2023-02-01T22:38:41;5.30;99.90
20831;DHT22;10576;53.556;9.868;2023-02-01T22:41:07;5.40;99.90
20831;DHT22;10576;53.556;9.868;2023-02-01T22:46:05;5.60;99.90
20831;DHT22;10576;53.556;9.868;2023-02-01T22:48:34;5.50;99.90
20831;DHT22;10576;53.556;9.868;2023-02-01T22:51:00;5.30;99.90
20831;DHT22;10576;53.556;9.868;2023-02-01T22:53:28;5.50;99.90
20831;DHT22;10576;53.556;9.868;2023-02-01T22:55:59;5.50;99.90
20831;DHT22;10576;53.556;9.868;2023-02-01T22:58:25;5.20;99.90
20831;DHT22;10576;53.556;9.868;2023-02-01T23:00:51;5.30;99.90
20831;DHT22;10576;53.556;9.868;2023-02-01T23:08:09;5.30;99.90
20831;DHT22;10576;53.556;9.868;2023-02-01T23:10:34;5.20;99.90
20831;DHT22;10576;53.556;9.868;2023-02-01T23:13:00;5.40;99.90
20831;DHT22;10576;53.556;9.868;2023-02-01T23:15:26;5.40;99.90
20831;DHT22;10576;53.556;9.868;2023-02-01T23:17:51;5.50;99.90
20831;DHT22;10576;53.556;9.868;2023-02-01T23:20:18;5.50;99.90
20831;DHT22;10576;53.556;9.868;2023-02-01T23:22:46;5.40;99.90
20831;DHT22;10576;53.556;9.868;2023-02-01T23:25:16;5.60;99.90
20831;DHT22;10576;53.556;9.868;2023-02-01T23:27:42;5.50;99.90
20831;DHT22;10576;53.556;9.868;2023-02-01T23:30:09;5.50;99.90
20831;DHT22;10576;53.556;9.868;2023-02-01T23:32:36;5.70;99.90
20831;DHT22;10576;53.556;9.868;2023-02-01T23:35:03;5.60;99.90
20831;DHT22;10576;53.556;9.868;2023-02-01T23:37:29;5.50;99.90
20831;DHT22;10576;53.556;9.868;2023-02-01T23:39:55;5.50;99.90
20831;DHT22;10576;53.556;9.868;2023-02-01T23:42:21;5.60;99.90
20831;DHT22;10576;53.556;9.868;2023-02-01T23:47:13;5.40;99.90
20831;DHT22;10576;53.556;9.868;2023-02-01T23:49:38;6.80;99.90
20831;DHT22;10576;53.556;9.868;2023-02-01T23:52:05;5.50;99.90
20831;DHT22;10576;53.556;9.868;2023-02-01T23:54:31;5.50;99.90
20831;DHT22;10576;53.556;9.868;2023-02-01T23:56:56;5.50;99.90
20831;DHT22;10576;53.556;9.868;2023-02-01T23:59:23;5.50;99.90
